x

Western Caribbean - 195 Nm Wsw Of Negril Jamiaca (42057) Wave Buoy

10:50pm - Fri 18th Apr 2014 All times are UTC.

  • Sig Wave height 3.3ft
  • Swell Direction
  • Peak Period 6s
  • Average Period 5s
  • Wind
    13mph, 16mph gusts
  • Sea Temp 83°f
  • Air Temp 81°f
  • Sea Pressure 1012.7mb

More Historic Weather Station data

Upgrade to MSW Pro to gain access to the past 30 days of data for over 8000 Wavebouys and Weather Stations around the globe.

Join Pro

Comparision Forecast

View Surf forecast
   
Fri 04/18 10:50pm 3.5ft 6s 5s 13 16 mph 1012.7mb 83f 81f
9:50pm 3.5ft 7s 5s 13 16 mph 1012.4mb 83f 82f
8:50pm 3.5ft 7s 5s 13 16 mph 1012.6mb 83f 82f
7:50pm 3.5ft 7s 5s 13 16 mph 1012.9mb 83f 82f
6:50pm 3.5ft 7s 5s 13 16 mph 1013.6mb 83f 82f
5:50pm 3.5ft 7s 5s 13 16 mph 1014.1mb 83f 82f
4:50pm 3.5ft 7s 5s 13 16 mph 1014.7mb 82f 82f
3:50pm 3ft 5s 4s 13 16 mph 1015mb 82f 82f
2:50pm 3ft 6s 4s 13 16 mph 1014.9mb 82f 81f
1:50pm 3ft 6s 5s 13 16 mph 1014.6mb 82f 81f
12:50pm 3ft 6s 5s 13
mph
1014mb 82f 81f
11:50am 3ft 7s 4s 13 16 mph 1013.1mb 82f 81f
10:50am 2.5ft 7s 4s 13
mph
1012.5mb 82f 81f
9:50am 2.5ft 6s 5s 13
mph
1012.1mb 82f 81f
8:50am 2.5ft 7s 5s 4 7 mph 1012.2mb 82f 79f
7:50am 2.5ft 5s 4s 16 18 mph 1012.4mb 82f 77f
6:50am 2.5ft 7s 4s 9
mph
1013mb 82f 80f
5:50am 3ft 6s 4s 9 11 mph 1013.5mb 82f 81f
4:50am 3ft 7s 5s 11 16 mph 1014.1mb 82f 81f
3:50am 3ft 7s 5s 13 16 mph 1014.2mb 82f 81f
2:50am 3ft 5s 5s 11 13 mph 1013.9mb 82f 81f
1:50am 3.5ft 7s 5s 11 13 mph 1013.4mb 82f 81f
12:50am 3ft 7s 5s 11 16 mph 1013.2mb 82f 82f
Thu 04/17 11:50pm 3.5ft 10s 5s 11 13 mph 1012.8mb 83f 82f
10:50pm 3ft 11s 5s 11 16 mph 1012.7mb 83f 82f
9:50pm 3ft 11s 5s 13 16 mph 1012.6mb 83f 82f
8:50pm 3ft 10s 5s 11 13 mph 1012.8mb 83f 82f
7:50pm 3ft 11s 5s 11 13 mph 1013.2mb 83f 82f
6:50pm 3ft 11s 4s 13 16 mph 1013.9mb 83f 82f
5:50pm 3ft 11s 5s 13 16 mph 1014.5mb 83f 82f
4:50pm 3.5ft 4s 4s 13 16 mph 1015mb 83f 82f
3:50pm 3ft 11s 4s 13 16 mph 1015.3mb 83f 82f
2:50pm 3ft 11s 4s 13 16 mph 1015.3mb 82f 81f
1:50pm 3ft 7s 4s 13 16 mph 1014.9mb 82f 82f
12:50pm 3ft 11s 4s 13 16 mph 1014.4mb 82f 81f
11:50am 2.5ft 7s 4s 13 16 mph 1013.9mb 82f 81f
10:50am 2.5ft 7s 4s 16 18 mph 1013.3mb 82f 81f
9:50am 2.5ft 7s 4s 13 16 mph 1013.2mb 82f 81f
8:50am 3ft 7s 4s 13 16 mph 1013mb 82f 81f
7:50am 3ft 7s 4s 13 16 mph 1013.1mb 82f 81f
6:50am 2.5ft 8s 4s 11 13 mph 1013.6mb 82f 81f
5:50am 3ft 8s 4s 13 16 mph 1014mb 82f 81f
4:50am 2.5ft 5s 4s 13 16 mph 1014.4mb 82f 81f
3:50am 2.5ft 7s 4s 13 16 mph 1014.7mb 82f 81f
2:50am 2.5ft 8s 4s 13 16 mph 1014.6mb 82f 82f
1:50am 2.5ft 7s 5s 13 16 mph 1014mb 83f 82f
12:50am 2.5ft 7s 5s 11
mph
1013.3mb 83f 82f
Wed 04/16 11:50pm 3ft 8s 5s 11 13 mph 1012.6mb 83f 82f
10:50pm 3.5ft 7s 5s 11 13 mph 1012.3mb 83f 82f
9:50pm 3ft 7s 5s 11
mph
1011.9mb 83f 82f
8:50pm 3ft 8s 5s 11 13 mph 1012.1mb 83f 82f
7:50pm 3ft 8s 5s 11 13 mph 1012.2mb 83f 82f
6:50pm 3ft 8s 5s 13 16 mph 1012.9mb 83f 82f
5:50pm 3ft 7s 5s 13 16 mph 1013.6mb 83f 82f
4:50pm 2.5ft 7s 4s 13
mph
1014.5mb 83f 81f
3:50pm 2.5ft 8s 5s 13 16 mph 1014.9mb 83f 81f
2:50pm 2.5ft 8s 5s 11 13 mph 1014.8mb 82f 81f
1:50pm 3ft 7s 5s 13 16 mph 1014.4mb 82f 81f
12:50pm 3ft 8s 5s 13 16 mph 1014.3mb 82f 81f
11:50am 3ft 8s 5s 11 13 mph 1013.7mb 82f 81f
10:50am 3ft 8s 5s 11
mph
1013.7mb 82f 81f
9:50am 3ft 8s 5s 11 13 mph 1013mb 82f 81f
8:50am 3ft 8s 5s 11 13 mph 1012.6mb 82f 80f
7:50am 3ft 6s 5s 11 16 mph 1012.4mb 82f 81f
6:50am 3.5ft 8s 5s 13 16 mph 1012.8mb 82f 81f
5:50am 3.5ft 8s 5s 11 13 mph 1013.3mb 82f 81f
4:50am 3.5ft 8s 5s 11 13 mph 1013.7mb 82f 81f
3:50am 3.5ft 8s 5s 11 13 mph 1013.5mb 82f 81f
2:50am 3.5ft 8s 5s 11 13 mph 1013.1mb 82f 81f
1:50am 3.5ft 8s 5s 11 16 mph 1012.4mb 82f 81f
12:50am 3.5ft 8s 5s 11 13 mph 1012mb 83f 82f
Tue 04/15 11:50pm 3.5ft 8s 5s 13 16 mph 1011.3mb 83f 81f
10:50pm 3.5ft 8s 5s 13 16 mph 1011mb 83f 81f
9:50pm 3.5ft 8s 5s 13 16 mph 1010.8mb 83f 82f
8:50pm 3.5ft 8s 5s 13 16 mph 1011.1mb 83f 82f
7:50pm 3.5ft 8s 5s 11 16 mph 1011.4mb 83f 82f
6:50pm 3.5ft 8s 5s 13 16 mph 1012.1mb 83f 82f
5:50pm 3.5ft 8s 5s 13
mph
1012.5mb 83f 81f
4:50pm 3.5ft 8s 5s 11 16 mph 1012.9mb 83f 81f
3:50pm 3.5ft 7s 5s 13 16 mph 1013.5mb 82f 81f
2:50pm 3.5ft 8s 5s 13 16 mph 1013.4mb 82f 81f
1:50pm 3.5ft 8s 5s 13 18 mph 1013.3mb 82f 81f
12:50pm 3.5ft 9s 5s 13 16 mph 1012.7mb 82f 81f
11:50am 4ft 8s 5s 16 18 mph 1012mb 82f 81f
10:50am 4.5ft 8s 5s 13 18 mph 1011.4mb 82f 81f
9:50am 4ft 8s 5s 13 18 mph 1010.7mb 82f 80f
8:50am 3.5ft 6s 5s 16 18 mph 1010.4mb 82f 81f
7:50am 3.5ft 7s 5s 16 18 mph 1010.4mb 82f 81f
6:50am 4ft 8s 5s 13 18 mph 1011mb 82f 81f
5:50am 3.5ft 8s 5s 16 18 mph 1011.6mb 82f 81f
4:50am 3.5ft 8s 5s 16 20 mph 1012.2mb 82f 81f
3:50am 3.5ft 9s 5s 16 18 mph 1012.4mb 82f 81f
2:50am 3.5ft 9s 4s 16 18 mph 1012.3mb 82f 81f
1:50am 3.5ft 8s 5s 18 20 mph 1011.8mb 82f 81f
12:50am 4ft 9s 5s 16 20 mph 1011.3mb 82f 81f
Mon 04/14 11:50pm 3.5ft 8s 5s 16 18 mph 1010.8mb 83f 82f